Time;durP1;ratioP1;P1;durP2;ratioP2;P2;SDS_P1;SDS_P2;PMS_P1;PMS_P2;Temp;Humidity;BMP_temperature;BMP_pressure;BME280_temperature;BME280_humidity;BME280_pressure;Samples;Min_cycle;Max_cycle;Signal;HPM_P1;HPM_P2
2022/05/28 00:02:08;;;;;;;3.60;1.60;;;;;;;9.96;82.28;96435.95;107797;1268;54276;-72
2022/05/28 00:04:39;;;;;;;10.70;4.20;;;;;;;9.95;82.21;96437.65;107862;1270;27998;-72
2022/05/28 00:07:13;;;;;;;7.30;3.10;;;;;;;9.88;82.09;96435.70;107809;1269;51775;-72
2022/05/28 00:09:44;;;;;;;3.00;2.00;;;;;;;9.85;81.95;96437.04;107739;1269;41033;-73
2022/05/28 00:12:15;;;;;;;2.10;1.50;;;;;;;9.92;81.78;96435.30;107778;1268;31169;-72
2022/05/28 00:14:46;;;;;;;1.50;1.40;;;;;;;10.02;81.57;96432.73;107740;1270;60273;-73
2022/05/28 00:17:17;;;;;;;3.20;1.40;;;;;;;10.03;81.37;96433.35;107773;1270;42988;-72
2022/05/28 00:19:48;;;;;;;1.80;1.40;;;;;;;10.03;81.15;96436.27;107728;1270;61517;-72
2022/05/28 00:22:19;;;;;;;3.20;1.70;;;;;;;9.99;80.91;96431.48;107613;1270;66367;-72
2022/05/28 00:24:51;;;;;;;3.20;1.90;;;;;;;9.91;80.91;96426.95;107715;1270;49146;-72
2022/05/28 00:27:22;;;;;;;2.40;1.90;;;;;;;9.81;81.03;96425.59;107659;1270;35361;-72
2022/05/28 00:29:53;;;;;;;3.50;1.70;;;;;;;9.77;81.05;96425.84;107730;1268;33782;-72
2022/05/28 00:32:24;;;;;;;5.70;1.70;;;;;;;9.76;81.04;96424.30;107711;1270;44480;-73
2022/05/28 00:34:58;;;;;;;3.50;2.50;;;;;;;9.79;80.87;96424.48;107686;1270;33525;-73
2022/05/28 00:37:29;;;;;;;4.40;2.20;;;;;;;9.84;80.61;96425.24;107566;1270;57914;-72
2022/05/28 00:40:01;;;;;;;3.10;1.90;;;;;;;9.87;80.40;96417.77;107569;1270;80500;-72
2022/05/28 00:42:32;;;;;;;3.90;2.10;;;;;;;9.88;80.37;96416.02;107742;1268;45064;-72
2022/05/28 00:45:03;;;;;;;6.40;2.20;;;;;;;9.86;80.29;96415.45;107768;1270;42716;-72
2022/05/28 00:47:34;;;;;;;2.30;1.60;;;;;;;9.85;80.22;96416.71;107789;1270;41752;-72
2022/05/28 00:50:07;;;;;;;5.00;2.00;;;;;;;9.87;80.33;96415.02;107717;1270;49094;-73
2022/05/28 00:52:40;;;;;;;3.70;2.20;;;;;;;9.84;80.29;96418.51;107830;1270;32335;-72
2022/05/28 00:55:12;;;;;;;5.00;2.40;;;;;;;9.84;80.22;96421.38;107765;1270;50941;-72
2022/05/28 00:57:44;;;;;;;7.00;2.60;;;;;;;9.87;80.24;96412.95;107704;1271;47589;-73
2022/05/28 01:00:18;;;;;;;3.80;2.30;;;;;;;9.87;80.22;96417.93;107771;1270;32805;-73
2022/05/28 01:02:57;;;;;;;6.40;2.30;;;;;;;9.85;80.07;96415.59;107720;1270;76627;-73
2022/05/28 01:05:39;;;;;;;5.20;2.30;;;;;;;9.85;79.80;96411.35;107782;1271;56266;-72
2022/05/28 01:08:19;;;;;;;6.20;2.70;;;;;;;9.81;79.66;96403.50;107764;1270;51367;-72
2022/05/28 01:10:57;;;;;;;4.10;2.60;;;;;;;9.77;79.55;96400.48;107746;1270;46547;-73
2022/05/28 01:13:34;;;;;;;5.10;2.70;;;;;;;9.75;79.50;96395.30;107735;1270;31042;-73
2022/05/28 01:16:11;;;;;;;3.60;2.30;;;;;;;9.72;79.59;96391.05;107735;1268;74874;-73
2022/05/28 01:18:49;;;;;;;5.00;2.30;;;;;;;9.66;79.81;96388.39;107727;1270;63436;-72
2022/05/28 01:21:29;;;;;;;5.60;2.30;;;;;;;9.57;79.95;96386.92;107716;1268;49744;-73
2022/05/28 01:24:10;;;;;;;3.90;2.30;;;;;;;9.48;80.20;96390.12;107763;1270;40811;-72
2022/05/28 01:26:55;;;;;;;11.30;3.00;;;;;;;9.51;80.37;96392.36;107759;1268;41640;-73
2022/05/28 01:29:31;;;;;;;7.80;3.80;;;;;;;9.57;80.47;96397.88;107603;1270;57063;-72
2022/05/28 01:32:04;;;;;;;6.90;3.00;;;;;;;9.55;80.53;96398.36;107752;1268;38486;-72
2022/05/28 01:34:36;;;;;;;4.60;2.20;;;;;;;9.53;80.68;96395.83;107825;1268;37652;-72
2022/05/28 01:37:08;;;;;;;4.30;2.60;;;;;;;9.51;80.74;96394.21;107745;1270;45932;-72
2022/05/28 01:39:46;;;;;;;4.80;2.70;;;;;;;9.56;80.83;96392.34;107858;1268;28413;-72
2022/05/28 01:42:19;;;;;;;7.50;4.10;;;;;;;9.63;80.90;96386.98;107560;1271;50835;-73
2022/05/28 01:44:51;;;;;;;4.10;2.70;;;;;;;9.64;80.91;96383.05;107723;1270;31768;-72
2022/05/28 01:47:26;;;;;;;6.50;2.90;;;;;;;9.63;80.72;96379.52;107765;1268;51130;-72
2022/05/28 01:49:59;;;;;;;7.00;4.00;;;;;;;9.59;80.89;96379.41;107693;1271;63491;-73
2022/05/28 01:52:32;;;;;;;3.10;1.90;;;;;;;9.57;81.00;96380.05;107760;1268;51008;-72
2022/05/28 01:55:06;;;;;;;3.30;2.10;;;;;;;9.56;81.07;96384.20;107664;1271;77649;-72
2022/05/28 01:57:38;;;;;;;4.70;2.40;;;;;;;9.58;81.26;96383.38;107763;1268;72891;-72
2022/05/28 02:00:12;;;;;;;5.30;2.50;;;;;;;9.62;81.22;96381.59;107824;1268;31299;-72
2022/05/28 02:02:43;;;;;;;4.30;2.40;;;;;;;9.64;81.15;96381.42;107709;1270;65764;-72
2022/05/28 02:05:14;;;;;;;4.10;2.20;;;;;;;9.62;81.11;96382.24;107713;1271;29607;-72
2022/05/28 02:07:46;;;;;;;3.70;2.30;;;;;;;9.65;81.14;96381.94;107767;1268;38132;-73
2022/05/28 02:10:20;;;;;;;3.50;2.00;;;;;;;9.69;81.36;96381.01;107739;1268;52737;-72
2022/05/28 02:13:01;;;;;;;2.90;1.90;;;;;;;9.73;81.48;96385.59;107690;1268;53001;-72
2022/05/28 02:15:44;;;;;;;5.20;2.20;;;;;;;9.76;81.43;96394.23;107762;1269;31382;-72
2022/05/28 02:18:25;;;;;;;4.20;2.00;;;;;;;9.81;81.36;96387.04;107783;1268;50370;-72
2022/05/28 02:21:04;;;;;;;5.10;2.40;;;;;;;9.84;81.29;96400.47;107735;1271;48854;-73
2022/05/28 02:23:42;;;;;;;7.60;2.00;;;;;;;9.75;80.71;96390.33;107731;1268;63583;-72
2022/05/28 02:26:18;;;;;;;5.10;1.80;;;;;;;9.65;79.68;96387.23;107724;1268;43303;-73
2022/05/28 02:28:49;;;;;;;2.70;1.90;;;;;;;9.59;78.95;96377.77;107779;1268;33119;-72
2022/05/28 02:31:25;;;;;;;2.30;1.80;;;;;;;9.54;78.74;96377.52;107742;1269;39876;-72
2022/05/28 02:33:57;;;;;;;4.30;1.90;;;;;;;9.49;78.60;96391.02;107711;1268;47214;-73
2022/05/28 02:36:29;;;;;;;4.70;1.80;;;;;;;9.44;78.51;96393.48;107732;1268;81629;-72
2022/05/28 02:39:00;;;;;;;2.60;1.30;;;;;;;9.41;78.52;96387.61;107686;1268;73350;-72
2022/05/28 02:41:32;;;;;;;4.80;2.10;;;;;;;9.37;78.31;96384.69;107612;1268;56637;-72
2022/05/28 02:44:03;;;;;;;3.30;1.50;;;;;;;9.29;78.36;96381.20;107746;1268;66864;-72
2022/05/28 02:46:35;;;;;;;3.50;1.60;;;;;;;9.20;78.35;96380.31;107734;1271;29945;-72
2022/05/28 02:49:07;;;;;;;5.70;2.10;;;;;;;9.13;78.51;96386.48;107799;1268;44914;-72
2022/05/28 02:51:38;;;;;;;4.20;1.60;;;;;;;9.07;78.77;96375.32;107858;1269;36962;-72
2022/05/28 02:54:10;;;;;;;4.60;2.00;;;;;;;9.05;79.09;96367.55;107791;1270;40928;-72
2022/05/28 02:56:41;;;;;;;3.90;2.00;;;;;;;9.05;79.17;96370.84;107815;1271;30668;-72
2022/05/28 02:59:14;;;;;;;3.30;1.80;;;;;;;9.02;79.21;96373.34;107700;1271;35536;-73
2022/05/28 03:01:46;;;;;;;5.20;2.20;;;;;;;9.01;79.39;96362.34;107695;1270;39989;-72
2022/05/28 03:04:17;;;;;;;3.40;2.10;;;;;;;9.02;79.49;96362.34;107700;1271;55395;-72
2022/05/28 03:06:48;;;;;;;4.30;1.80;;;;;;;9.02;79.54;96359.54;107597;1271;62446;-72
2022/05/28 03:09:19;;;;;;;3.40;1.90;;;;;;;9.03;79.82;96360.05;107607;1271;34417;-72
2022/05/28 03:11:50;;;;;;;5.00;2.60;;;;;;;8.99;79.92;96363.08;107646;1271;48087;-72
2022/05/28 03:14:24;;;;;;;7.50;2.50;;;;;;;8.98;80.11;96361.39;107670;1271;34370;-72
2022/05/28 03:16:57;;;;;;;5.30;1.70;;;;;;;9.00;80.22;96361.08;107509;1271;52160;-72
2022/05/28 03:19:28;;;;;;;4.00;1.70;;;;;;;8.92;80.15;96359.59;107741;1268;40151;-72
2022/05/28 03:21:59;;;;;;;4.10;1.80;;;;;;;8.89;80.17;96365.52;107644;1268;64998;-72
2022/05/28 03:24:32;;;;;;;3.90;1.60;;;;;;;8.88;80.32;96367.17;107649;1268;61375;-72
2022/05/28 03:27:03;;;;;;;3.20;2.00;;;;;;;8.88;80.39;96367.77;107595;1269;52467;-72
2022/05/28 03:29:34;;;;;;;3.20;1.80;;;;;;;8.88;80.53;96366.34;107590;1271;45751;-72
2022/05/28 03:32:06;;;;;;;5.10;2.20;;;;;;;8.90;80.73;96364.73;107730;1268;33725;-72
2022/05/28 03:34:37;;;;;;;2.80;1.90;;;;;;;8.91;80.88;96364.30;107826;1268;35389;-72
2022/05/28 03:37:08;;;;;;;4.90;2.10;;;;;;;8.92;81.23;96361.02;107759;1268;48830;-72
2022/05/28 03:39:40;;;;;;;3.70;2.00;;;;;;;8.96;81.46;96359.35;107678;1271;58426;-72
2022/05/28 03:42:11;;;;;;;5.80;2.50;;;;;;;9.00;81.92;96357.79;107702;1268;49129;-72
2022/05/28 03:44:44;;;;;;;5.20;2.40;;;;;;;9.03;82.30;96355.88;107663;1271;35718;-73
2022/05/28 03:47:15;;;;;;;3.20;2.20;;;;;;;9.05;82.27;96358.09;107717;1268;55983;-73
2022/05/28 03:49:47;;;;;;;4.90;2.50;;;;;;;9.08;82.31;96360.81;107713;1268;31325;-73
2022/05/28 03:52:19;;;;;;;3.20;2.20;;;;;;;9.14;82.36;96364.00;107752;1268;43693;-72
2022/05/28 03:54:50;;;;;;;3.90;1.90;;;;;;;9.21;82.39;96361.25;107703;1268;43887;-72
2022/05/28 03:57:26;;;;;;;5.00;2.20;;;;;;;9.27;82.34;96361.05;107712;1268;42106;-72
2022/05/28 03:59:58;;;;;;;4.80;2.40;;;;;;;9.34;82.35;96357.98;107754;1268;33192;-72
2022/05/28 04:02:29;;;;;;;4.40;2.50;;;;;;;9.42;82.27;96360.46;107731;1268;32876;-72
2022/05/28 04:05:02;;;;;;;5.50;2.10;;;;;;;9.51;82.24;96363.67;107648;1271;40418;-72
2022/05/28 04:07:33;;;;;;;4.50;2.20;;;;;;;9.63;82.04;96363.59;107717;1268;37430;-72
2022/05/28 04:10:06;;;;;;;3.60;2.10;;;;;;;9.74;81.72;96367.14;107713;1268;52251;-72
2022/05/28 04:12:37;;;;;;;8.30;2.40;;;;;;;9.87;81.57;96365.86;107705;1268;45343;-72
2022/05/28 04:15:12;;;;;;;3.30;2.10;;;;;;;9.96;81.37;96365.73;107798;1268;31504;-72
2022/05/28 04:17:44;;;;;;;4.00;2.30;;;;;;;10.01;80.99;96361.98;107762;1268;44063;-72
2022/05/28 04:20:16;;;;;;;4.20;2.10;;;;;;;10.04;80.75;96359.34;107766;1268;41811;-73
2022/05/28 04:22:47;;;;;;;3.80;2.20;;;;;;;10.12;80.39;96358.52;107750;1268;41738;-72
2022/05/28 04:25:19;;;;;;;3.20;2.10;;;;;;;10.23;80.34;96358.20;107627;1268;57131;-72
2022/05/28 04:27:51;;;;;;;4.80;2.10;;;;;;;10.37;80.17;96358.23;107717;1271;37178;-72
2022/05/28 04:30:22;;;;;;;4.20;2.20;;;;;;;10.53;79.65;96359.73;107688;1268;54271;-72
2022/05/28 04:32:53;;;;;;;2.60;1.30;;;;;;;10.60;78.85;96355.73;107732;1268;34569;-73
2022/05/28 04:35:24;;;;;;;2.70;1.70;;;;;;;10.63;78.36;96360.83;107546;1271;108341;-73
2022/05/28 04:37:55;;;;;;;3.50;1.70;;;;;;;10.73;78.16;96357.58;107736;1268;54432;-73
2022/05/28 04:40:27;;;;;;;4.20;2.80;;;;;;;10.85;78.17;96351.33;107714;1268;57552;-73
2022/05/28 04:42:58;;;;;;;4.60;2.20;;;;;;;11.00;77.95;96346.88;107548;1268;84078;-73
2022/05/28 04:45:29;;;;;;;5.40;2.10;;;;;;;11.11;77.17;96342.88;107744;1268;34550;-72
2022/05/28 04:48:01;;;;;;;5.10;2.50;;;;;;;11.18;77.09;96346.79;107652;1268;92039;-73
2022/05/28 04:50:32;;;;;;;2.50;1.70;;;;;;;11.26;76.82;96347.45;107739;1268;33914;-73
2022/05/28 04:53:03;;;;;;;4.50;2.30;;;;;;;11.41;77.01;96347.55;107608;1268;70382;-73
2022/05/28 04:55:34;;;;;;;5.20;2.20;;;;;;;11.55;76.66;96352.00;107706;1268;36528;-73
2022/05/28 04:58:05;;;;;;;5.20;1.80;;;;;;;11.69;76.42;96350.44;107596;1270;97528;-73
2022/05/28 05:00:37;;;;;;;5.30;2.00;;;;;;;11.93;75.15;96349.42;107654;1270;36181;-73
2022/05/28 05:03:08;;;;;;;3.90;2.00;;;;;;;12.14;73.72;96343.73;107743;1270;54542;-72
2022/05/28 05:05:41;;;;;;;5.00;1.80;;;;;;;12.39;72.73;96342.73;107733;1270;28088;-73
2022/05/28 05:08:17;;;;;;;5.40;2.00;;;;;;;13.48;69.88;96347.80;107664;1270;42565;-73
2022/05/28 05:10:49;;;;;;;6.50;2.30;;;;;;;15.27;64.83;96342.98;107679;1268;40574;-73
2022/05/28 05:13:24;;;;;;;4.60;2.00;;;;;;;16.63;59.61;96344.85;107688;1270;33084;-73
2022/05/28 05:15:55;;;;;;;6.70;2.30;;;;;;;17.58;55.91;96348.69;107636;1269;73037;-73
2022/05/28 05:18:26;;;;;;;5.00;1.70;;;;;;;18.10;52.59;96347.13;107706;1271;35786;-73
2022/05/28 05:20:58;;;;;;;4.00;1.60;;;;;;;18.41;50.88;96354.63;107596;1268;71673;-73
2022/05/28 05:23:29;;;;;;;4.90;1.80;;;;;;;18.98;50.01;96352.36;107705;1268;44804;-73
2022/05/28 05:26:00;;;;;;;4.60;2.10;;;;;;;19.58;48.13;96352.98;107651;1268;91511;-74
2022/05/28 05:28:32;;;;;;;4.80;1.70;;;;;;;20.09;48.16;96357.42;107544;1269;116950;-73
2022/05/28 05:31:03;;;;;;;3.10;1.20;;;;;;;20.40;45.05;96357.58;107631;1270;33287;-74
2022/05/28 05:33:37;;;;;;;5.40;1.80;;;;;;;20.71;44.97;96358.44;107565;1268;120562;-73
2022/05/28 05:36:10;;;;;;;4.40;1.60;;;;;;;21.07;43.41;96360.56;107791;1268;35291;-74
2022/05/28 05:38:42;;;;;;;5.50;2.20;;;;;;;21.34;42.62;96355.77;107593;1268;99745;-73
2022/05/28 05:41:13;;;;;;;3.20;2.70;;;;;;;21.13;39.15;96355.60;107717;1268;59114;-74
2022/05/28 05:43:45;;;;;;;4.20;1.50;;;;;;;20.42;39.67;96362.63;107714;1268;32883;-74
2022/05/28 05:46:16;;;;;;;5.80;1.90;;;;;;;20.54;41.02;96366.41;107716;1268;60482;-73
2022/05/28 05:48:48;;;;;;;3.80;1.80;;;;;;;19.34;41.04;96366.34;107780;1268;35424;-73
2022/05/28 05:51:20;;;;;;;5.30;1.60;;;;;;;17.74;44.11;96366.19;107682;1270;71051;-74
2022/05/28 05:53:51;;;;;;;4.40;1.90;;;;;;;18.36;45.33;96370.20;107729;1268;33890;-74
2022/05/28 05:56:23;;;;;;;4.70;1.70;;;;;;;17.96;44.72;96366.75;107552;1270;87032;-73
2022/05/28 05:58:54;;;;;;;5.00;1.70;;;;;;;18.05;45.69;96365.85;107615;1270;73358;-74
2022/05/28 06:01:26;;;;;;;4.50;1.50;;;;;;;19.50;43.42;96363.04;107542;1271;57579;-73
2022/05/28 06:03:57;;;;;;;3.40;1.70;;;;;;;18.69;44.03;96371.17;107529;1271;73727;-73
2022/05/28 06:06:29;;;;;;;1.80;1.20;;;;;;;18.92;44.44;96363.84;107603;1270;59899;-73
2022/05/28 06:09:00;;;;;;;3.90;1.60;;;;;;;18.19;43.55;96358.77;107705;1268;50806;-73
2022/05/28 06:11:31;;;;;;;4.20;1.50;;;;;;;16.35;46.15;96360.11;107714;1268;40945;-72
2022/05/28 06:14:03;;;;;;;9.90;1.80;;;;;;;16.27;46.10;96363.14;107700;1268;65491;-73
2022/05/28 06:16:34;;;;;;;5.20;1.80;;;;;;;15.01;47.95;96363.27;107763;1268;36050;-73
2022/05/28 06:19:08;;;;;;;7.10;1.80;;;;;;;14.15;49.90;96360.40;107785;1268;31548;-73
2022/05/28 06:21:40;;;;;;;4.20;1.10;;;;;;;13.85;51.49;96361.22;107857;1268;32238;-73
2022/05/28 06:24:11;;;;;;;6.80;2.60;;;;;;;14.01;51.57;96358.90;107826;1268;32071;-72
2022/05/28 06:26:42;;;;;;;6.20;1.80;;;;;;;15.89;50.81;96354.54;107636;1268;60439;-74
2022/05/28 06:29:13;;;;;;;4.60;1.70;;;;;;;17.27;48.00;96350.67;107685;1268;55416;-74
2022/05/28 06:31:44;;;;;;;6.60;1.90;;;;;;;17.81;47.15;96349.84;107634;1268;72764;-73
2022/05/28 06:34:16;;;;;;;6.00;1.60;;;;;;;19.83;44.22;96344.09;107737;1268;49021;-74
2022/05/28 06:36:49;;;;;;;5.00;1.80;;;;;;;20.84;40.85;96343.80;107611;1268;68130;-74
2022/05/28 06:39:22;;;;;;;3.90;1.60;;;;;;;21.68;40.39;96339.18;107664;1270;53994;-74
2022/05/28 06:41:53;;;;;;;4.20;1.60;;;;;;;22.23;37.60;96336.05;107680;1270;63896;-74
2022/05/28 06:44:24;;;;;;;5.20;1.50;;;;;;;20.54;36.52;96339.13;107635;1270;65347;-74
2022/05/28 06:46:56;;;;;;;5.90;2.00;;;;;;;18.23;40.03;96338.89;107687;1270;32771;-73
2022/05/28 06:49:27;;;;;;;4.50;1.50;;;;;;;19.10;40.26;96339.06;107630;1268;68764;-73
2022/05/28 06:51:58;;;;;;;3.40;1.50;;;;;;;18.01;40.14;96339.88;107738;1268;33309;-73
2022/05/28 06:54:30;;;;;;;5.40;1.90;;;;;;;16.28;42.84;96339.75;107692;1270;45900;-73
2022/05/28 06:57:01;;;;;;;6.30;1.60;;;;;;;15.97;44.78;96333.81;107713;1268;38244;-73
2022/05/28 06:59:32;;;;;;;6.90;1.50;;;;;;;15.93;45.02;96335.09;107752;1268;31785;-73
2022/05/28 07:02:03;;;;;;;8.50;2.20;;;;;;;15.44;45.94;96333.54;107493;1270;67223;-73
2022/05/28 07:04:34;;;;;;;3.60;1.40;;;;;;;16.29;46.26;96331.89;107749;1268;31830;-74
2022/05/28 07:07:06;;;;;;;4.50;2.80;;;;;;;18.82;42.35;96334.56;107648;1268;101776;-74
2022/05/28 07:09:37;;;;;;;3.70;1.60;;;;;;;20.45;38.76;96333.77;107534;1270;113133;-74
2022/05/28 07:12:10;;;;;;;1.80;0.80;;;;;;;21.04;34.44;96332.16;107752;1270;32872;-74
2022/05/28 07:14:41;;;;;;;2.80;1.20;;;;;;;21.46;34.12;96334.35;107759;1268;67073;-74
2022/05/28 07:17:13;;;;;;;3.60;1.50;;;;;;;22.01;33.17;96328.09;107685;1268;43242;-75
2022/05/28 07:19:44;;;;;;;4.40;1.20;;;;;;;21.98;32.72;96327.34;107632;1268;93910;-74
2022/05/28 07:22:18;;;;;;;6.60;1.30;;;;;;;22.59;33.36;96324.75;107468;1268;174586;-75
2022/05/28 07:24:49;;;;;;;3.50;1.30;;;;;;;23.07;32.66;96322.38;107608;1268;101922;-74
2022/05/28 07:27:20;;;;;;;3.80;1.10;;;;;;;21.57;31.95;96316.84;107619;1270;81943;-74
2022/05/28 07:29:51;;;;;;;3.20;1.30;;;;;;;20.63;32.67;96313.73;107641;1268;124081;-73
2022/05/28 07:32:28;;;;;;;3.90;1.20;;;;;;;19.44;34.68;96314.40;107587;1268;96716;-73
2022/05/28 07:35:00;;;;;;;4.60;1.60;;;;;;;18.23;36.05;96313.70;107618;1270;52072;-74
2022/05/28 07:37:32;;;;;;;4.70;1.60;;;;;;;18.67;37.60;96314.77;107606;1270;53180;-73
2022/05/28 07:40:04;;;;;;;4.00;1.20;;;;;;;20.77;36.14;96305.45;107651;1270;65997;-73
2022/05/28 07:42:36;;;;;;;6.50;1.50;;;;;;;21.35;35.84;96306.66;107570;1268;112265;-74
2022/05/28 07:45:09;;;;;;;4.40;1.50;;;;;;;21.49;33.43;96307.29;107739;1269;36864;-74
2022/05/28 07:47:42;;;;;;;4.50;1.90;;;;;;;19.36;34.53;96313.00;107709;1270;62262;-73
2022/05/28 07:50:13;;;;;;;4.20;1.80;;;;;;;19.61;35.84;96307.98;107664;1270;65475;-75
2022/05/28 07:52:45;;;;;;;2.60;1.70;;;;;;;21.16;34.50;96308.54;107715;1268;58477;-75
2022/05/28 07:55:16;;;;;;;3.20;1.50;;;;;;;22.18;32.54;96297.55;107433;1268;155126;-75
2022/05/28 07:57:47;;;;;;;6.00;1.70;;;;;;;22.40;32.36;96296.04;107747;1268;36396;-76
2022/05/28 08:00:20;;;;;;;4.40;1.80;;;;;;;23.19;31.18;96301.06;107613;1270;82048;-75
2022/05/28 08:02:51;;;;;;;4.10;1.60;;;;;;;23.63;30.69;96305.39;107774;1268;29893;-75
2022/05/28 08:05:23;;;;;;;3.70;1.70;;;;;;;24.42;30.14;96290.54;107691;1268;86819;-75
2022/05/28 08:07:56;;;;;;;3.50;1.50;;;;;;;23.99;29.81;96296.23;107741;1268;93977;-75
2022/05/28 08:10:27;;;;;;;2.60;1.20;;;;;;;21.38;31.63;96297.36;107649;1268;40936;-74
2022/05/28 08:13:03;;;;;;;4.10;1.60;;;;;;;19.80;34.12;96299.09;107443;1270;106218;-74
2022/05/28 08:15:35;;;;;;;5.20;1.60;;;;;;;20.25;34.62;96297.82;107724;1270;31518;-74
2022/05/28 08:18:07;;;;;;;4.90;1.70;;;;;;;20.16;34.59;96299.30;107705;1268;48140;-74
2022/05/28 08:23:28;;;;;;;7.10;2.30;;;;;;;16.71;38.73;96313.58;107624;1270;93941;-73
2022/05/28 08:25:59;;;;;;;4.30;1.70;;;;;;;16.59;40.52;96310.16;107650;1268;69489;-74
2022/05/28 08:28:30;;;;;;;3.60;1.60;;;;;;;19.18;38.42;96298.09;107709;1270;33048;-74
2022/05/28 08:31:02;;;;;;;5.50;1.80;;;;;;;21.36;35.61;96295.05;107556;1270;95533;-74
2022/05/28 08:33:37;;;;;;;4.80;1.90;;;;;;;22.40;33.81;96293.88;107672;1270;47891;-74
2022/05/28 08:36:09;;;;;;;3.80;1.30;;;;;;;23.28;32.22;96294.14;107639;1269;93460;-75
2022/05/28 08:38:41;;;;;;;4.10;1.40;;;;;;;23.13;30.88;96292.95;107774;1270;29312;-75
2022/05/28 08:41:14;;;;;;;3.50;1.60;;;;;;;23.35;29.69;96290.29;107696;1270;59512;-75
2022/05/28 08:43:50;;;;;;;4.20;1.40;;;;;;;23.07;30.34;96289.92;107667;1270;42053;-74
2022/05/28 08:46:27;;;;;;;3.20;1.50;;;;;;;22.01;31.09;96295.39;107731;1268;33675;-74
2022/05/28 08:49:00;;;;;;;5.90;1.70;;;;;;;21.83;31.39;96287.35;107599;1270;70699;-74
2022/05/28 08:51:40;;;;;;;5.20;1.30;;;;;;;20.63;32.57;96297.27;107763;1268;32384;-74
2022/05/28 08:54:21;;;;;;;3.20;1.30;;;;;;;18.88;34.62;96309.89;107728;1268;78566;-74
2022/05/28 08:56:55;;;;;;;4.80;1.30;;;;;;;17.25;38.13;96316.60;107722;1270;39456;-73
2022/05/28 08:59:30;;;;;;;6.40;1.90;;;;;;;15.79;40.43;96319.83;107674;1268;79954;-74
2022/05/28 09:02:03;;;;;;;6.00;1.60;;;;;;;15.13;43.55;96320.85;107597;1268;106598;-73
2022/05/28 09:04:40;;;;;;;3.70;1.70;;;;;;;15.17;46.13;96320.61;107758;1268;35487;-74
2022/05/28 09:07:14;;;;;;;4.80;1.60;;;;;;;15.42;46.50;96321.75;107708;1268;66041;-73
2022/05/28 09:09:48;;;;;;;4.80;1.50;;;;;;;15.33;46.66;96316.04;107814;1268;30963;-74
2022/05/28 09:12:26;;;;;;;7.50;1.90;;;;;;;15.35;45.84;96316.95;107692;1268;77877;-74
2022/05/28 09:14:59;;;;;;;7.00;1.80;;;;;;;15.24;46.77;96312.98;107693;1268;64938;-73
2022/05/28 09:17:34;;;;;;;5.40;1.50;;;;;;;15.41;46.70;96308.51;107697;1268;52821;-73
2022/05/28 09:20:11;;;;;;;3.30;1.50;;;;;;;15.46;45.07;96305.57;107637;1268;72141;-73
2022/05/28 09:22:43;;;;;;;5.40;1.60;;;;;;;15.18;46.29;96305.45;107789;1268;108439;-73
2022/05/28 09:25:18;;;;;;;5.90;1.70;;;;;;;15.40;46.30;96299.16;107699;1268;65639;-74
2022/05/28 09:27:59;;;;;;;3.80;1.70;;;;;;;15.58;46.09;96301.22;107744;1268;57726;-74
2022/05/28 09:30:42;;;;;;;5.60;1.40;;;;;;;15.52;45.39;96294.28;107779;1268;35561;-74
2022/05/28 09:33:34;;;;;;;4.20;0.90;;;;;;;15.40;45.55;96293.00;107784;1268;38713;-74
2022/05/28 09:36:09;;;;;;;3.80;1.00;;;;;;;15.23;45.44;96298.20;107804;1268;47053;-73
2022/05/28 09:38:52;;;;;;;4.90;1.40;;;;;;;15.12;45.27;96289.79;107772;1268;71390;-73
2022/05/28 09:41:44;;;;;;;4.80;1.30;;;;;;;14.95;45.13;96288.02;107651;1268;66530;-72
2022/05/28 09:44:30;;;;;;;3.10;1.00;;;;;;;14.86;45.19;96289.63;107795;1268;30834;-73
2022/05/28 09:47:11;;;;;;;4.40;1.50;;;;;;;14.90;45.47;96289.23;107764;1268;45481;-73
2022/05/28 09:49:54;;;;;;;2.80;1.10;;;;;;;15.00;44.95;96275.90;107820;1268;48981;-73
2022/05/28 09:52:28;;;;;;;2.90;1.30;;;;;;;15.11;44.51;96278.61;107689;1270;60778;-73
2022/05/28 09:55:17;;;;;;;3.00;1.30;;;;;;;15.36;44.82;96271.77;107697;1270;51707;-73
2022/05/28 09:57:59;;;;;;;3.30;1.20;;;;;;;15.43;44.10;96267.45;107535;1267;122766;-73
2022/05/28 10:00:31;;;;;;;2.40;1.00;;;;;;;15.56;42.99;96263.96;107677;1268;45770;-73
2022/05/28 10:05:52;;;;;;;;;;;;;;;15.30;42.35;96257.38;107710;1270;40091;-73
2022/05/28 10:08:32;;;;;;;4.70;1.00;;;;;;;14.97;41.37;96256.95;107649;1268;55807;-73
2022/05/28 10:11:07;;;;;;;3.30;1.30;;;;;;;14.73;42.13;96262.86;107749;1269;36068;-73
2022/05/28 10:13:47;;;;;;;4.50;1.20;;;;;;;14.65;42.52;96269.52;107800;1268;66157;-73
2022/05/28 10:16:22;;;;;;;4.10;1.00;;;;;;;14.66;43.31;96268.13;107678;1268;52096;-73
2022/05/28 10:18:57;;;;;;;7.00;1.80;;;;;;;14.93;43.96;96262.68;107757;1268;33057;-73
2022/05/28 10:21:37;;;;;;;5.20;1.10;;;;;;;15.29;44.37;96254.11;107756;1268;38878;-72
2022/05/28 10:24:18;;;;;;;3.50;1.10;;;;;;;15.30;42.95;96246.30;107660;1268;54738;-73
2022/05/28 10:26:54;;;;;;;3.70;1.00;;;;;;;15.16;42.64;96249.50;107574;1270;82702;-73
2022/05/28 10:29:30;;;;;;;1.70;0.80;;;;;;;15.08;42.39;96252.54;107759;1268;38811;-73
2022/05/28 10:32:03;;;;;;;3.60;1.20;;;;;;;14.79;42.38;96257.73;107626;1268;54128;-73
2022/05/28 10:34:38;;;;;;;2.00;0.80;;;;;;;14.55;43.22;96259.77;107670;1270;37422;-72
2022/05/28 10:37:12;;;;;;;2.10;1.10;;;;;;;14.42;43.07;96262.89;107838;1268;38319;-72
2022/05/28 10:39:44;;;;;;;3.00;1.20;;;;;;;14.36;43.61;96263.73;107724;1268;80157;-73
2022/05/28 10:42:17;;;;;;;4.00;1.60;;;;;;;14.64;44.37;96263.22;107702;1270;33844;-72
2022/05/28 10:44:48;;;;;;;3.20;1.20;;;;;;;15.08;44.24;96250.94;107750;1268;66665;-72
2022/05/28 10:47:38;;;;;;;2.40;1.00;;;;;;;15.43;44.34;96252.80;107666;1270;34915;-74
2022/05/28 10:50:27;;;;;;;3.50;1.40;;;;;;;15.47;43.78;96252.52;107795;1269;35960;-72
2022/05/28 10:53:14;;;;;;;3.00;1.30;;;;;;;15.74;43.55;96250.61;107658;1270;44608;-73
2022/05/28 10:55:57;;;;;;;5.80;1.10;;;;;;;16.07;44.15;96241.08;107717;1270;30273;-73
2022/05/28 10:58:43;;;;;;;2.40;0.70;;;;;;;16.27;41.22;96232.16;107664;1270;47542;-73
2022/05/28 11:01:37;;;;;;;3.10;1.00;;;;;;;15.91;41.28;96234.98;107636;1270;62028;-73
2022/05/28 11:04:33;;;;;;;4.50;1.20;;;;;;;15.90;41.15;96238.73;107668;1270;74107;-73
2022/05/28 11:07:25;;;;;;;3.90;1.30;;;;;;;15.96;40.02;96229.68;107584;1270;60408;-72
2022/05/28 11:10:13;;;;;;;1.90;0.90;;;;;;;15.92;39.91;96227.54;107699;1268;52015;-73
2022/05/28 11:13:00;;;;;;;2.50;1.10;;;;;;;15.94;40.57;96226.75;107768;1269;39773;-73
2022/05/28 11:15:48;;;;;;;5.70;1.10;;;;;;;15.88;40.95;96223.30;107694;1268;66823;-73
2022/05/28 11:18:44;;;;;;;3.40;1.20;;;;;;;15.59;40.69;96221.71;107688;1268;70514;-73
2022/05/28 11:21:31;;;;;;;3.00;1.40;;;;;;;15.40;40.14;96222.52;107499;1268;110096;-74
2022/05/28 11:24:31;;;;;;;3.00;1.00;;;;;;;15.14;40.77;96220.36;107676;1268;87789;-73
2022/05/28 11:27:20;;;;;;;3.20;1.50;;;;;;;15.30;41.21;96212.20;107695;1268;51596;-72
2022/05/28 11:30:02;;;;;;;3.10;1.10;;;;;;;15.78;41.31;96217.98;107673;1270;37126;-73
2022/05/28 11:32:39;;;;;;;4.30;1.10;;;;;;;15.72;40.64;96217.23;107710;1269;48276;-72
2022/05/28 11:35:19;;;;;;;4.90;1.30;;;;;;;15.36;40.97;96226.92;107788;1270;32591;-72
2022/05/28 11:37:54;;;;;;;3.70;1.70;;;;;;;14.88;41.07;96228.71;107651;1270;71147;-73
2022/05/28 11:40:28;;;;;;;2.10;1.00;;;;;;;14.51;41.69;96242.27;107684;1268;88040;-72
2022/05/28 11:43:04;;;;;;;6.90;1.80;;;;;;;14.20;42.47;96263.60;107690;1270;42494;-72
2022/05/28 11:45:44;;;;;;;5.40;1.40;;;;;;;13.88;43.68;96294.81;107525;1268;320268;-72
2022/05/28 11:48:24;;;;;;;4.50;1.10;;;;;;;13.35;45.47;96302.15;107784;1268;27109;-73
2022/05/28 11:54:07;;;;;;;2.80;1.40;;;;;;;12.91;49.68;96304.15;107713;1268;67619;-73
2022/05/28 11:56:38;;;;;;;2.70;1.10;;;;;;;12.79;50.92;96298.71;107773;1269;36267;-72
2022/05/28 11:59:17;;;;;;;3.20;1.40;;;;;;;12.54;51.77;96302.91;107822;1268;46293;-72
2022/05/28 12:01:52;;;;;;;6.40;1.60;;;;;;;12.59;51.81;96306.55;107734;1268;42586;-73
2022/05/28 12:04:24;;;;;;;3.80;1.20;;;;;;;12.88;52.24;96297.18;107773;1269;38850;-73
2022/05/28 12:07:04;;;;;;;3.50;1.10;;;;;;;13.21;52.26;96303.59;107732;1268;39587;-73
2022/05/28 12:09:43;;;;;;;3.90;1.40;;;;;;;13.82;52.14;96304.97;107792;1268;38900;-73